sensor_id;sensor_type;location;lat;lon;timestamp;temperature;humidity
48579;DHT22;34357;51.948;6.132;2023-04-25T00:02:22;6.90;89.10
48579;DHT22;34357;51.948;6.132;2023-04-25T00:04:48;7.00;89.10
48579;DHT22;34357;51.948;6.132;2023-04-25T00:07:17;7.00;89.10
48579;DHT22;34357;51.948;6.132;2023-04-25T00:09:44;6.90;89.20
48579;DHT22;34357;51.948;6.132;2023-04-25T00:12:10;6.90;89.40
48579;DHT22;34357;51.948;6.132;2023-04-25T00:14:36;6.80;89.50
48579;DHT22;34357;51.948;6.132;2023-04-25T00:17:02;6.70;89.60
48579;DHT22;34357;51.948;6.132;2023-04-25T00:19:28;6.60;89.80
48579;DHT22;34357;51.948;6.132;2023-04-25T00:21:57;6.60;90.00
48579;DHT22;34357;51.948;6.132;2023-04-25T00:24:23;6.60;90.10
48579;DHT22;34357;51.948;6.132;2023-04-25T00:26:48;6.60;90.10
48579;DHT22;34357;51.948;6.132;2023-04-25T00:29:14;6.60;90.10
48579;DHT22;34357;51.948;6.132;2023-04-25T00:31:40;6.50;90.20
48579;DHT22;34357;51.948;6.132;2023-04-25T00:34:06;6.40;90.10
48579;DHT22;34357;51.948;6.132;2023-04-25T00:36:34;6.40;90.10
48579;DHT22;34357;51.948;6.132;2023-04-25T00:39:00;6.30;90.20
48579;DHT22;34357;51.948;6.132;2023-04-25T00:41:26;6.20;90.30
48579;DHT22;34357;51.948;6.132;2023-04-25T00:43:54;6.20;90.40
48579;DHT22;34357;51.948;6.132;2023-04-25T00:46:20;6.10;90.50
48579;DHT22;34357;51.948;6.132;2023-04-25T00:48:45;6.10;90.70
48579;DHT22;34357;51.948;6.132;2023-04-25T00:51:15;6.10;90.70
48579;DHT22;34357;51.948;6.132;2023-04-25T00:53:41;6.10;90.70
48579;DHT22;34357;51.948;6.132;2023-04-25T00:56:07;6.00;90.80
48579;DHT22;34357;51.948;6.132;2023-04-25T00:58:33;6.00;90.90
48579;DHT22;34357;51.948;6.132;2023-04-25T01:01:01;5.90;90.90
48579;DHT22;34357;51.948;6.132;2023-04-25T01:03:26;5.90;91.10
48579;DHT22;34357;51.948;6.132;2023-04-25T01:05:54;5.80;91.10
48579;DHT22;34357;51.948;6.132;2023-04-25T01:08:23;5.80;91.20
48579;DHT22;34357;51.948;6.132;2023-04-25T01:10:50;5.90;91.40
48579;DHT22;34357;51.948;6.132;2023-04-25T01:13:16;5.90;91.40
48579;DHT22;34357;51.948;6.132;2023-04-25T01:15:43;5.90;91.20
48579;DHT22;34357;51.948;6.132;2023-04-25T01:18:09;5.90;91.10
48579;DHT22;34357;51.948;6.132;2023-04-25T01:20:37;6.00;90.80
48579;DHT22;34357;51.948;6.132;2023-04-25T01:23:03;6.00;90.60
48579;DHT22;34357;51.948;6.132;2023-04-25T01:25:30;6.00;90.20
48579;DHT22;34357;51.948;6.132;2023-04-25T01:27:57;6.00;90.10
48579;DHT22;34357;51.948;6.132;2023-04-25T01:30:26;6.10;89.90
48579;DHT22;34357;51.948;6.132;2023-04-25T01:32:57;6.10;89.80
48579;DHT22;34357;51.948;6.132;2023-04-25T01:35:24;6.10;89.50
48579;DHT22;34357;51.948;6.132;2023-04-25T01:37:53;6.20;89.30
48579;DHT22;34357;51.948;6.132;2023-04-25T01:40:19;6.30;89.30
48579;DHT22;34357;51.948;6.132;2023-04-25T01:42:46;6.20;89.30
48579;DHT22;34357;51.948;6.132;2023-04-25T01:45:12;6.30;89.10
48579;DHT22;34357;51.948;6.132;2023-04-25T01:47:38;6.40;89.20
48579;DHT22;34357;51.948;6.132;2023-04-25T01:50:07;6.30;89.30
48579;DHT22;34357;51.948;6.132;2023-04-25T01:52:33;6.30;89.60
48579;DHT22;34357;51.948;6.132;2023-04-25T01:55:01;6.30;89.80
48579;DHT22;34357;51.948;6.132;2023-04-25T01:57:28;6.30;90.10
48579;DHT22;34357;51.948;6.132;2023-04-25T01:59:59;6.30;90.20
48579;DHT22;34357;51.948;6.132;2023-04-25T02:02:38;6.30;90.20
48579;DHT22;34357;51.948;6.132;2023-04-25T02:05:06;6.30;90.30
48579;DHT22;34357;51.948;6.132;2023-04-25T02:07:35;6.30;90.20
48579;DHT22;34357;51.948;6.132;2023-04-25T02:10:01;6.30;90.10
48579;DHT22;34357;51.948;6.132;2023-04-25T02:12:31;6.20;90.20
48579;DHT22;34357;51.948;6.132;2023-04-25T02:15:17;6.20;90.20
48579;DHT22;34357;51.948;6.132;2023-04-25T02:17:57;6.20;90.00
48579;DHT22;34357;51.948;6.132;2023-04-25T02:20:24;6.20;89.90
48579;DHT22;34357;51.948;6.132;2023-04-25T02:22:50;6.20;89.90
48579;DHT22;34357;51.948;6.132;2023-04-25T02:25:17;6.10;89.80
48579;DHT22;34357;51.948;6.132;2023-04-25T02:27:43;6.10;89.50
48579;DHT22;34357;51.948;6.132;2023-04-25T02:30:09;6.10;89.50
48579;DHT22;34357;51.948;6.132;2023-04-25T02:32:36;6.10;89.20
48579;DHT22;34357;51.948;6.132;2023-04-25T02:35:01;6.10;88.90
48579;DHT22;34357;51.948;6.132;2023-04-25T02:37:31;6.10;88.60
48579;DHT22;34357;51.948;6.132;2023-04-25T02:39:57;6.10;88.50
48579;DHT22;34357;51.948;6.132;2023-04-25T02:42:22;6.10;88.10
48579;DHT22;34357;51.948;6.132;2023-04-25T02:44:49;6.10;87.80
48579;DHT22;34357;51.948;6.132;2023-04-25T02:47:15;6.10;87.10
48579;DHT22;34357;51.948;6.132;2023-04-25T02:49:42;6.20;86.50
48579;DHT22;34357;51.948;6.132;2023-04-25T02:52:08;6.10;86.20
48579;DHT22;34357;51.948;6.132;2023-04-25T02:54:34;6.10;86.00
48579;DHT22;34357;51.948;6.132;2023-04-25T02:57:01;6.10;86.20
48579;DHT22;34357;51.948;6.132;2023-04-25T02:59:34;6.00;86.40
48579;DHT22;34357;51.948;6.132;2023-04-25T03:02:00;6.00;86.70
48579;DHT22;34357;51.948;6.132;2023-04-25T03:04:26;5.90;86.60
48579;DHT22;34357;51.948;6.132;2023-04-25T03:06:53;5.90;87.20
48579;DHT22;34357;51.948;6.132;2023-04-25T03:09:20;5.90;87.70
48579;DHT22;34357;51.948;6.132;2023-04-25T03:11:46;5.80;87.90
48579;DHT22;34357;51.948;6.132;2023-04-25T03:14:13;5.80;88.10
48579;DHT22;34357;51.948;6.132;2023-04-25T03:16:38;5.70;88.20
48579;DHT22;34357;51.948;6.132;2023-04-25T03:19:04;5.70;88.40
48579;DHT22;34357;51.948;6.132;2023-04-25T03:21:32;5.70;88.50
48579;DHT22;34357;51.948;6.132;2023-04-25T03:24:00;5.60;88.50
48579;DHT22;34357;51.948;6.132;2023-04-25T03:26:26;5.60;88.60
48579;DHT22;34357;51.948;6.132;2023-04-25T03:28:51;5.70;88.60
48579;DHT22;34357;51.948;6.132;2023-04-25T03:31:18;5.70;88.30
48579;DHT22;34357;51.948;6.132;2023-04-25T03:33:44;5.60;88.50
48579;DHT22;34357;51.948;6.132;2023-04-25T03:36:10;5.60;88.40
48579;DHT22;34357;51.948;6.132;2023-04-25T03:38:35;5.60;88.40
48579;DHT22;34357;51.948;6.132;2023-04-25T03:41:02;5.60;88.40
48579;DHT22;34357;51.948;6.132;2023-04-25T03:43:47;5.70;88.00
48579;DHT22;34357;51.948;6.132;2023-04-25T03:46:13;5.60;88.10
48579;DHT22;34357;51.948;6.132;2023-04-25T03:48:40;5.60;88.00
48579;DHT22;34357;51.948;6.132;2023-04-25T03:51:08;5.50;88.00
48579;DHT22;34357;51.948;6.132;2023-04-25T03:53:37;5.50;88.00
48579;DHT22;34357;51.948;6.132;2023-04-25T03:56:32;5.40;88.00
48579;DHT22;34357;51.948;6.132;2023-04-25T03:59:04;5.40;88.20
48579;DHT22;34357;51.948;6.132;2023-04-25T04:01:30;5.50;88.00
48579;DHT22;34357;51.948;6.132;2023-04-25T04:03:57;5.50;87.80
48579;DHT22;34357;51.948;6.132;2023-04-25T04:06:23;5.40;87.70
48579;DHT22;34357;51.948;6.132;2023-04-25T04:08:55;5.40;87.70
48579;DHT22;34357;51.948;6.132;2023-04-25T04:11:23;5.30;87.90
48579;DHT22;34357;51.948;6.132;2023-04-25T04:13:48;5.20;87.90
48579;DHT22;34357;51.948;6.132;2023-04-25T04:16:14;5.20;88.20
48579;DHT22;34357;51.948;6.132;2023-04-25T04:18:40;5.10;88.30
48579;DHT22;34357;51.948;6.132;2023-04-25T04:21:06;5.10;88.50
48579;DHT22;34357;51.948;6.132;2023-04-25T04:23:34;5.10;88.60
48579;DHT22;34357;51.948;6.132;2023-04-25T04:26:00;5.00;88.60
48579;DHT22;34357;51.948;6.132;2023-04-25T04:28:26;4.90;88.80
48579;DHT22;34357;51.948;6.132;2023-04-25T04:31:11;4.90;89.10
48579;DHT22;34357;51.948;6.132;2023-04-25T04:33:37;4.90;89.10
48579;DHT22;34357;51.948;6.132;2023-04-25T04:36:04;4.90;89.20
48579;DHT22;34357;51.948;6.132;2023-04-25T04:38:33;4.90;89.20
48579;DHT22;34357;51.948;6.132;2023-04-25T04:41:01;5.00;89.30
48579;DHT22;34357;51.948;6.132;2023-04-25T04:43:39;5.00;89.00
48579;DHT22;34357;51.948;6.132;2023-04-25T04:46:23;5.10;88.90
48579;DHT22;34357;51.948;6.132;2023-04-25T04:49:09;5.00;88.50
48579;DHT22;34357;51.948;6.132;2023-04-25T04:52:01;4.90;88.80
48579;DHT22;34357;51.948;6.132;2023-04-25T04:54:51;5.00;89.00
48579;DHT22;34357;51.948;6.132;2023-04-25T04:57:37;5.10;88.90
48579;DHT22;34357;51.948;6.132;2023-04-25T05:00:22;5.00;88.90
48579;DHT22;34357;51.948;6.132;2023-04-25T05:03:06;5.10;89.00
48579;DHT22;34357;51.948;6.132;2023-04-25T05:05:58;5.10;88.90
48579;DHT22;34357;51.948;6.132;2023-04-25T05:08:45;5.10;89.00
48579;DHT22;34357;51.948;6.132;2023-04-25T05:11:19;5.00;88.80
48579;DHT22;34357;51.948;6.132;2023-04-25T05:14:12;5.00;89.20
48579;DHT22;34357;51.948;6.132;2023-04-25T05:16:46;4.90;89.10
48579;DHT22;34357;51.948;6.132;2023-04-25T05:19:31;4.90;89.20
48579;DHT22;34357;51.948;6.132;2023-04-25T05:22:20;5.00;89.20
48579;DHT22;34357;51.948;6.132;2023-04-25T05:25:15;5.10;89.20
48579;DHT22;34357;51.948;6.132;2023-04-25T05:27:46;5.10;89.00
48579;DHT22;34357;51.948;6.132;2023-04-25T05:30:41;5.20;88.80
48579;DHT22;34357;51.948;6.132;2023-04-25T05:33:15;5.20;88.60
48579;DHT22;34357;51.948;6.132;2023-04-25T05:35:41;5.20;88.60
48579;DHT22;34357;51.948;6.132;2023-04-25T05:38:07;5.30;88.50
48579;DHT22;34357;51.948;6.132;2023-04-25T05:40:52;5.30;88.50
48579;DHT22;34357;51.948;6.132;2023-04-25T05:43:53;5.30;88.50
48579;DHT22;34357;51.948;6.132;2023-04-25T05:46:37;5.40;88.20
48579;DHT22;34357;51.948;6.132;2023-04-25T05:49:21;5.40;88.30
48579;DHT22;34357;51.948;6.132;2023-04-25T05:52:01;5.60;88.30
48579;DHT22;34357;51.948;6.132;2023-04-25T05:54:46;5.60;87.80
48579;DHT22;34357;51.948;6.132;2023-04-25T05:57:25;5.50;87.60
48579;DHT22;34357;51.948;6.132;2023-04-25T05:59:52;5.60;87.50
48579;DHT22;34357;51.948;6.132;2023-04-25T06:02:20;5.60;87.30
48579;DHT22;34357;51.948;6.132;2023-04-25T06:04:49;5.60;87.30
48579;DHT22;34357;51.948;6.132;2023-04-25T06:07:15;5.60;86.80
48579;DHT22;34357;51.948;6.132;2023-04-25T06:09:41;5.70;86.60
48579;DHT22;34357;51.948;6.132;2023-04-25T06:12:08;5.80;86.50
48579;DHT22;34357;51.948;6.132;2023-04-25T06:14:34;5.80;86.10
48579;DHT22;34357;51.948;6.132;2023-04-25T06:17:00;5.90;86.00
48579;DHT22;34357;51.948;6.132;2023-04-25T06:19:32;6.00;85.90
48579;DHT22;34357;51.948;6.132;2023-04-25T06:21:58;6.00;85.10
48579;DHT22;34357;51.948;6.132;2023-04-25T06:24:24;6.10;84.70
48579;DHT22;34357;51.948;6.132;2023-04-25T06:26:50;6.10;84.40
48579;DHT22;34357;51.948;6.132;2023-04-25T06:29:15;6.20;84.00
48579;DHT22;34357;51.948;6.132;2023-04-25T06:31:41;6.30;84.20
48579;DHT22;34357;51.948;6.132;2023-04-25T06:34:07;6.30;83.60
48579;DHT22;34357;51.948;6.132;2023-04-25T06:36:36;6.60;83.30
48579;DHT22;34357;51.948;6.132;2023-04-25T06:39:06;6.70;82.70
48579;DHT22;34357;51.948;6.132;2023-04-25T06:41:32;6.80;82.40
48579;DHT22;34357;51.948;6.132;2023-04-25T06:44:01;6.60;82.00
48579;DHT22;34357;51.948;6.132;2023-04-25T06:46:31;6.80;82.30
48579;DHT22;34357;51.948;6.132;2023-04-25T06:48:58;6.70;80.70
48579;DHT22;34357;51.948;6.132;2023-04-25T06:51:24;6.70;81.50
48579;DHT22;34357;51.948;6.132;2023-04-25T06:53:51;6.80;81.40
48579;DHT22;34357;51.948;6.132;2023-04-25T06:56:25;6.90;81.20
48579;DHT22;34357;51.948;6.132;2023-04-25T06:59:20;6.90;81.50
48579;DHT22;34357;51.948;6.132;2023-04-25T07:01:47;6.90;82.10
48579;DHT22;34357;51.948;6.132;2023-04-25T07:04:19;6.90;81.90
48579;DHT22;34357;51.948;6.132;2023-04-25T07:06:49;6.90;81.90
48579;DHT22;34357;51.948;6.132;2023-04-25T07:09:18;7.00;82.50
48579;DHT22;34357;51.948;6.132;2023-04-25T07:11:46;7.10;81.40
48579;DHT22;34357;51.948;6.132;2023-04-25T07:14:12;7.20;81.00
48579;DHT22;34357;51.948;6.132;2023-04-25T07:16:39;7.40;81.30
48579;DHT22;34357;51.948;6.132;2023-04-25T07:19:05;7.60;80.50
48579;DHT22;34357;51.948;6.132;2023-04-25T07:21:31;7.70;79.30
48579;DHT22;34357;51.948;6.132;2023-04-25T07:23:59;7.90;78.60
48579;DHT22;34357;51.948;6.132;2023-04-25T07:26:30;7.90;78.80
48579;DHT22;34357;51.948;6.132;2023-04-25T07:29:14;8.00;78.10
48579;DHT22;34357;51.948;6.132;2023-04-25T07:31:40;8.00;77.60
48579;DHT22;34357;51.948;6.132;2023-04-25T07:34:06;7.90;75.80
48579;DHT22;34357;51.948;6.132;2023-04-25T07:36:32;7.80;75.90
48579;DHT22;34357;51.948;6.132;2023-04-25T07:38:58;7.80;76.00
48579;DHT22;34357;51.948;6.132;2023-04-25T07:41:24;8.00;77.20
48579;DHT22;34357;51.948;6.132;2023-04-25T07:43:49;8.50;75.30
48579;DHT22;34357;51.948;6.132;2023-04-25T07:46:15;8.90;75.30
48579;DHT22;34357;51.948;6.132;2023-04-25T07:48:42;9.20;72.00
48579;DHT22;34357;51.948;6.132;2023-04-25T07:51:07;9.20;71.20
48579;DHT22;34357;51.948;6.132;2023-04-25T07:53:35;9.50;73.60
48579;DHT22;34357;51.948;6.132;2023-04-25T07:56:07;9.80;70.60
48579;DHT22;34357;51.948;6.132;2023-04-25T07:58:36;9.90;71.20
48579;DHT22;34357;51.948;6.132;2023-04-25T08:01:04;10.20;71.10
48579;DHT22;34357;51.948;6.132;2023-04-25T08:04:05;10.60;70.10
48579;DHT22;34357;51.948;6.132;2023-04-25T08:07:00;11.00;67.80
48579;DHT22;34357;51.948;6.132;2023-04-25T08:09:29;11.00;65.90
48579;DHT22;34357;51.948;6.132;2023-04-25T08:12:00;10.90;65.70
48579;DHT22;34357;51.948;6.132;2023-04-25T08:14:30;10.80;66.10
48579;DHT22;34357;51.948;6.132;2023-04-25T08:17:02;10.50;66.20
48579;DHT22;34357;51.948;6.132;2023-04-25T08:19:29;10.40;66.40
48579;DHT22;34357;51.948;6.132;2023-04-25T08:21:56;10.40;67.60
48579;DHT22;34357;51.948;6.132;2023-04-25T08:24:28;10.40;62.80
48579;DHT22;34357;51.948;6.132;2023-04-25T08:26:54;10.80;63.00
48579;DHT22;34357;51.948;6.132;2023-04-25T08:29:22;10.90;62.30
48579;DHT22;34357;51.948;6.132;2023-04-25T08:31:50;11.10;62.60
48579;DHT22;34357;51.948;6.132;2023-04-25T08:34:16;10.70;61.90
48579;DHT22;34357;51.948;6.132;2023-04-25T08:36:44;10.10;62.30
48579;DHT22;34357;51.948;6.132;2023-04-25T08:39:26;10.20;63.40
48579;DHT22;34357;51.948;6.132;2023-04-25T08:42:24;10.00;65.50
48579;DHT22;34357;51.948;6.132;2023-04-25T08:44:50;9.90;63.20
48579;DHT22;34357;51.948;6.132;2023-04-25T08:47:22;9.80;64.60
48579;DHT22;34357;51.948;6.132;2023-04-25T08:49:53;9.90;64.40
48579;DHT22;34357;51.948;6.132;2023-04-25T08:52:28;9.90;64.40
48579;DHT22;34357;51.948;6.132;2023-04-25T08:54:57;9.90;65.70
48579;DHT22;34357;51.948;6.132;2023-04-25T08:57:24;9.70;67.10
48579;DHT22;34357;51.948;6.132;2023-04-25T08:59:51;9.40;68.30
48579;DHT22;34357;51.948;6.132;2023-04-25T09:02:18;9.40;69.70
48579;DHT22;34357;51.948;6.132;2023-04-25T09:04:48;9.30;69.30
48579;DHT22;34357;51.948;6.132;2023-04-25T09:07:15;9.30;69.50
48579;DHT22;34357;51.948;6.132;2023-04-25T09:09:44;9.30;68.00
48579;DHT22;34357;51.948;6.132;2023-04-25T09:12:10;9.90;67.40
48579;DHT22;34357;51.948;6.132;2023-04-25T09:14:36;10.40;66.70
48579;DHT22;34357;51.948;6.132;2023-04-25T09:17:21;10.40;65.70
48579;DHT22;34357;51.948;6.132;2023-04-25T09:20:12;10.40;66.00
48579;DHT22;34357;51.948;6.132;2023-04-25T09:22:39;10.40;65.20
48579;DHT22;34357;51.948;6.132;2023-04-25T09:25:12;10.20;66.40
48579;DHT22;34357;51.948;6.132;2023-04-25T09:27:53;10.30;66.20
48579;DHT22;34357;51.948;6.132;2023-04-25T09:30:29;10.20;65.60
48579;DHT22;34357;51.948;6.132;2023-04-25T09:33:16;10.30;65.40
48579;DHT22;34357;51.948;6.132;2023-04-25T09:35:46;10.40;65.20
48579;DHT22;34357;51.948;6.132;2023-04-25T09:38:25;10.70;64.70
48579;DHT22;34357;51.948;6.132;2023-04-25T09:41:24;10.90;63.80
48579;DHT22;34357;51.948;6.132;2023-04-25T09:43:50;11.30;61.90
48579;DHT22;34357;51.948;6.132;2023-04-25T09:46:16;11.20;60.50
48579;DHT22;34357;51.948;6.132;2023-04-25T09:48:50;11.20;60.70
48579;DHT22;34357;51.948;6.132;2023-04-25T09:51:19;11.80;58.10
48579;DHT22;34357;51.948;6.132;2023-04-25T09:53:46;11.60;57.50
48579;DHT22;34357;51.948;6.132;2023-04-25T09:56:39;11.60;57.50
48579;DHT22;34357;51.948;6.132;2023-04-25T09:59:07;11.70;56.20
48579;DHT22;34357;51.948;6.132;2023-04-25T10:01:37;11.80;55.80
48579;DHT22;34357;51.948;6.132;2023-04-25T10:04:11;11.70;57.30
48579;DHT22;34357;51.948;6.132;2023-04-25T10:06:57;11.80;55.30
48579;DHT22;34357;51.948;6.132;2023-04-25T10:09:26;11.30;56.70
48579;DHT22;34357;51.948;6.132;2023-04-25T10:11:52;10.70;54.70
48579;DHT22;34357;51.948;6.132;2023-04-25T10:14:18;10.10;58.70
48579;DHT22;34357;51.948;6.132;2023-04-25T10:16:45;10.20;59.40
48579;DHT22;34357;51.948;6.132;2023-04-25T10:19:12;11.10;59.50
48579;DHT22;34357;51.948;6.132;2023-04-25T10:21:51;11.70;57.00
48579;DHT22;34357;51.948;6.132;2023-04-25T10:24:18;12.00;54.20
48579;DHT22;34357;51.948;6.132;2023-04-25T10:26:44;12.20;53.60
48579;DHT22;34357;51.948;6.132;2023-04-25T10:29:11;12.30;52.80
48579;DHT22;34357;51.948;6.132;2023-04-25T10:31:45;12.40;52.70
48579;DHT22;34357;51.948;6.132;2023-04-25T10:34:12;12.90;50.90
48579;DHT22;34357;51.948;6.132;2023-04-25T10:36:38;13.50;50.60
48579;DHT22;34357;51.948;6.132;2023-04-25T10:39:06;13.80;48.90
48579;DHT22;34357;51.948;6.132;2023-04-25T10:41:56;13.30;46.30
48579;DHT22;34357;51.948;6.132;2023-04-25T10:44:22;13.60;48.70
48579;DHT22;34357;51.948;6.132;2023-04-25T10:46:48;13.30;45.40
48579;DHT22;34357;51.948;6.132;2023-04-25T10:49:41;12.60;49.10
48579;DHT22;34357;51.948;6.132;2023-04-25T10:52:25;12.10;50.30
48579;DHT22;34357;51.948;6.132;2023-04-25T10:54:53;11.40;49.70
48579;DHT22;34357;51.948;6.132;2023-04-25T10:57:32;11.00;54.00
48579;DHT22;34357;51.948;6.132;2023-04-25T11:00:18;10.40;58.90
48579;DHT22;34357;51.948;6.132;2023-04-25T11:02:52;9.80;61.20
48579;DHT22;34357;51.948;6.132;2023-04-25T11:05:31;9.70;63.40
48579;DHT22;34357;51.948;6.132;2023-04-25T11:07:58;9.60;63.80
48579;DHT22;34357;51.948;6.132;2023-04-25T11:10:29;9.50;64.10
48579;DHT22;34357;51.948;6.132;2023-04-25T11:12:56;9.70;65.40
48579;DHT22;34357;51.948;6.132;2023-04-25T11:15:23;9.60;64.20
48579;DHT22;34357;51.948;6.132;2023-04-25T11:17:51;9.50;63.50
48579;DHT22;34357;51.948;6.132;2023-04-25T11:20:18;9.40;63.90
48579;DHT22;34357;51.948;6.132;2023-04-25T11:22:45;9.40;62.90
48579;DHT22;34357;51.948;6.132;2023-04-25T11:25:12;9.40;61.50
48579;DHT22;34357;51.948;6.132;2023-04-25T11:27:51;9.50;60.30
48579;DHT22;34357;51.948;6.132;2023-04-25T11:30:18;9.90;61.10
48579;DHT22;34357;51.948;6.132;2023-04-25T11:32:44;10.20;59.30
48579;DHT22;34357;51.948;6.132;2023-04-25T11:35:11;10.30;58.20
48579;DHT22;34357;51.948;6.132;2023-04-25T11:37:39;10.80;57.70
48579;DHT22;34357;51.948;6.132;2023-04-25T11:40:06;11.30;56.40
48579;DHT22;34357;51.948;6.132;2023-04-25T11:42:33;11.10;52.90
48579;DHT22;34357;51.948;6.132;2023-04-25T11:45:01;11.20;55.60
48579;DHT22;34357;51.948;6.132;2023-04-25T11:47:30;11.80;54.50
48579;DHT22;34357;51.948;6.132;2023-04-25T11:49:58;11.90;52.70
48579;DHT22;34357;51.948;6.132;2023-04-25T11:52:35;11.80;52.50
48579;DHT22;34357;51.948;6.132;2023-04-25T11:55:00;11.70;49.80
48579;DHT22;34357;51.948;6.132;2023-04-25T11:57:26;11.70;51.70
48579;DHT22;34357;51.948;6.132;2023-04-25T11:59:52;12.00;50.90
48579;DHT22;34357;51.948;6.132;2023-04-25T12:02:24;12.40;49.90
48579;DHT22;34357;51.948;6.132;2023-04-25T12:04:51;12.40;49.10
48579;DHT22;34357;51.948;6.132;2023-04-25T12:07:17;12.40;48.30
48579;DHT22;34357;51.948;6.132;2023-04-25T12:09:51;11.50;49.80
48579;DHT22;34357;51.948;6.132;2023-04-25T12:12:18;11.60;51.50
48579;DHT22;34357;51.948;6.132;2023-04-25T12:14:47;12.00;50.80
48579;DHT22;34357;51.948;6.132;2023-04-25T12:17:14;12.10;49.40
48579;DHT22;34357;51.948;6.132;2023-04-25T12:19:40;12.50;48.80
48579;DHT22;34357;51.948;6.132;2023-04-25T12:22:19;12.60;45.80
48579;DHT22;34357;51.948;6.132;2023-04-25T12:24:46;12.70;47.10
48579;DHT22;34357;51.948;6.132;2023-04-25T12:27:14;13.00;47.40
48579;DHT22;34357;51.948;6.132;2023-04-25T12:29:52;13.10;46.10
48579;DHT22;34357;51.948;6.132;2023-04-25T12:32:18;12.60;46.70
48579;DHT22;34357;51.948;6.132;2023-04-25T12:34:44;12.40;48.90
48579;DHT22;34357;51.948;6.132;2023-04-25T12:37:10;11.90;50.20
48579;DHT22;34357;51.948;6.132;2023-04-25T12:39:36;11.70;51.90
48579;DHT22;34357;51.948;6.132;2023-04-25T12:42:02;10.70;58.60
48579;DHT22;34357;51.948;6.132;2023-04-25T12:44:28;10.10;64.90
48579;DHT22;34357;51.948;6.132;2023-04-25T12:46:54;9.80;67.40
48579;DHT22;34357;51.948;6.132;2023-04-25T12:49:20;9.60;66.90
48579;DHT22;34357;51.948;6.132;2023-04-25T12:51:46;9.70;67.40
48579;DHT22;34357;51.948;6.132;2023-04-25T12:54:12;9.50;64.40
48579;DHT22;34357;51.948;6.132;2023-04-25T12:56:40;9.50;65.50
48579;DHT22;34357;51.948;6.132;2023-04-25T12:59:06;9.60;65.10
48579;DHT22;34357;51.948;6.132;2023-04-25T13:01:32;9.70;63.70
48579;DHT22;34357;51.948;6.132;2023-04-25T13:03:58;9.90;65.30
48579;DHT22;34357;51.948;6.132;2023-04-25T13:06:24;10.20;64.70
48579;DHT22;34357;51.948;6.132;2023-04-25T13:08:50;10.50;62.80
48579;DHT22;34357;51.948;6.132;2023-04-25T13:11:15;10.90;63.90
48579;DHT22;34357;51.948;6.132;2023-04-25T13:13:41;11.20;57.90
48579;DHT22;34357;51.948;6.132;2023-04-25T13:16:07;11.60;59.30
48579;DHT22;34357;51.948;6.132;2023-04-25T13:18:34;11.70;58.50
48579;DHT22;34357;51.948;6.132;2023-04-25T13:21:00;11.40;54.20
48579;DHT22;34357;51.948;6.132;2023-04-25T13:23:27;11.00;53.80
48579;DHT22;34357;51.948;6.132;2023-04-25T13:25:54;11.10;57.80
48579;DHT22;34357;51.948;6.132;2023-04-25T13:28:21;11.90;58.20
48579;DHT22;34357;51.948;6.132;2023-04-25T13:30:47;12.20;54.10
48579;DHT22;34357;51.948;6.132;2023-04-25T13:33:14;12.20;51.30
48579;DHT22;34357;51.948;6.132;2023-04-25T13:35:41;11.70;49.30
48579;DHT22;34357;51.948;6.132;2023-04-25T13:38:06;11.20;52.10
48579;DHT22;34357;51.948;6.132;2023-04-25T13:40:32;10.90;53.20
48579;DHT22;34357;51.948;6.132;2023-04-25T13:42:58;10.50;54.10
48579;DHT22;34357;51.948;6.132;2023-04-25T13:45:25;10.30;56.10
48579;DHT22;34357;51.948;6.132;2023-04-25T13:47:50;10.10;57.70
48579;DHT22;34357;51.948;6.132;2023-04-25T13:50:16;10.00;61.00
48579;DHT22;34357;51.948;6.132;2023-04-25T13:52:42;10.00;60.10
48579;DHT22;34357;51.948;6.132;2023-04-25T13:55:09;10.00;60.40
48579;DHT22;34357;51.948;6.132;2023-04-25T13:57:35;10.50;60.00
48579;DHT22;34357;51.948;6.132;2023-04-25T14:00:02;11.10;58.50
48579;DHT22;34357;51.948;6.132;2023-04-25T14:02:37;11.60;50.90
48579;DHT22;34357;51.948;6.132;2023-04-25T14:05:04;11.90;49.30
48579;DHT22;34357;51.948;6.132;2023-04-25T14:07:30;11.80;48.60
48579;DHT22;34357;51.948;6.132;2023-04-25T14:09:57;11.50;49.50
48579;DHT22;34357;51.948;6.132;2023-04-25T14:12:23;11.20;52.30
48579;DHT22;34357;51.948;6.132;2023-04-25T14:14:49;11.60;53.20
48579;DHT22;34357;51.948;6.132;2023-04-25T14:17:15;12.10;51.70
48579;DHT22;34357;51.948;6.132;2023-04-25T14:19:41;12.00;49.90
48579;DHT22;34357;51.948;6.132;2023-04-25T14:22:11;11.70;50.70
48579;DHT22;34357;51.948;6.132;2023-04-25T14:24:36;11.20;51.30
48579;DHT22;34357;51.948;6.132;2023-04-25T14:27:03;11.10;50.10
48579;DHT22;34357;51.948;6.132;2023-04-25T14:29:29;11.10;50.20
48579;DHT22;34357;51.948;6.132;2023-04-25T14:31:55;11.50;50.80
48579;DHT22;34357;51.948;6.132;2023-04-25T14:34:23;11.80;50.10
48579;DHT22;34357;51.948;6.132;2023-04-25T14:36:49;12.30;50.00
48579;DHT22;34357;51.948;6.132;2023-04-25T14:39:15;12.60;49.60
48579;DHT22;34357;51.948;6.132;2023-04-25T14:41:40;12.50;50.30
48579;DHT22;34357;51.948;6.132;2023-04-25T14:44:06;11.80;51.00
48579;DHT22;34357;51.948;6.132;2023-04-25T14:46:35;11.70;53.00
48579;DHT22;34357;51.948;6.132;2023-04-25T14:49:01;11.60;52.50
48579;DHT22;34357;51.948;6.132;2023-04-25T14:51:26;11.50;51.80
48579;DHT22;34357;51.948;6.132;2023-04-25T14:53:52;11.60;52.80
48579;DHT22;34357;51.948;6.132;2023-04-25T14:56:18;11.90;54.60
48579;DHT22;34357;51.948;6.132;2023-04-25T14:58:44;11.70;52.20
48579;DHT22;34357;51.948;6.132;2023-04-25T15:01:11;11.40;50.40
48579;DHT22;34357;51.948;6.132;2023-04-25T15:03:39;11.30;51.80
48579;DHT22;34357;51.948;6.132;2023-04-25T15:06:05;11.30;50.60
48579;DHT22;34357;51.948;6.132;2023-04-25T15:08:32;11.60;49.50
48579;DHT22;34357;51.948;6.132;2023-04-25T15:10:58;11.90;48.10
48579;DHT22;34357;51.948;6.132;2023-04-25T15:13:24;11.90;47.70
48579;DHT22;34357;51.948;6.132;2023-04-25T15:15:51;12.20;45.80
48579;DHT22;34357;51.948;6.132;2023-04-25T15:18:20;12.50;45.10
48579;DHT22;34357;51.948;6.132;2023-04-25T15:20:50;12.50;45.50
48579;DHT22;34357;51.948;6.132;2023-04-25T15:23:17;12.80;46.40
48579;DHT22;34357;51.948;6.132;2023-04-25T15:25:44;12.80;48.70
48579;DHT22;34357;51.948;6.132;2023-04-25T15:28:09;12.40;50.60
48579;DHT22;34357;51.948;6.132;2023-04-25T15:30:35;12.00;53.80
48579;DHT22;34357;51.948;6.132;2023-04-25T15:33:01;11.90;52.90
48579;DHT22;34357;51.948;6.132;2023-04-25T15:35:27;11.90;52.70
48579;DHT22;34357;51.948;6.132;2023-04-25T15:37:52;11.70;53.00
48579;DHT22;34357;51.948;6.132;2023-04-25T15:40:18;11.50;54.90
48579;DHT22;34357;51.948;6.132;2023-04-25T15:42:46;11.40;54.50
48579;DHT22;34357;51.948;6.132;2023-04-25T15:45:13;11.40;55.30
48579;DHT22;34357;51.948;6.132;2023-04-25T15:47:40;11.40;55.60
48579;DHT22;34357;51.948;6.132;2023-04-25T15:50:08;11.50;56.00
48579;DHT22;34357;51.948;6.132;2023-04-25T15:52:35;11.20;54.80
48579;DHT22;34357;51.948;6.132;2023-04-25T15:55:01;11.10;56.00
48579;DHT22;34357;51.948;6.132;2023-04-25T15:57:29;10.90;56.40